KCUB/CUB METAR and TAF weather

Enter ICAO airport designator
Station Type Date Time Source
KCUB METAR 2019/06/18 16:53 UTC NOAA

KCUB 181653Z AUTO 00000KT 10SM SCT040 31/21 A3000 RMK AO2 SLP157 T03110206


Station Type Date Time Source
KCUB Decoded METAR 2019/06/18 16:53 UTC NOAA

OWENS DOWNTOWN AIRPORT, SC, United States (KCUB) 33-58N 081-00W 56M
Jun 18, 2019 - 12:53 PM EDT / 2019.06.18 1653 UTC
Wind: Calm:0
Visibility: 10 mile(s):0
Sky conditions: partly cloudy
Temperature: 88.0 F (31.1 C)
Dew Point: 69.1 F (20.6 C)
Relative Humidity: 53%
Pressure (altimeter): 30 in. Hg (1015 hPa)
ob: KCUB 181653Z AUTO 00000KT 10SM SCT040 31/21 A3000 RMK AO2 SLP157 T03110206
cycle: 17

Station Type Date Time Source
KCUB TAF 2019/06/18 15:58 UTC NOAA

TAF
AMD KCUB 181458Z 1815/1912 17006KT P6SM FEW025 SCT040
FM181900 18008KT P6SM VCSH BKN050
TEMPO 1822/1902 5SM TSRA BKN030CB
FM190300 VRB03KT P6SM OVC050

Example: see airport list